Home   Weather   India   Unnao   Past weeks
Flag for India

Past Weather in Unnao, Uttar Pradesh, India — Yesterday and Last 2 Weeks

Currently: 95 °F. Haze. (Weather station: Lucknow / Amausi, India). See more current weather

Past Weather in Unnao — Graph

°F

Unnao Temperature Yesterday

Maximum temperature yesterday: 109 °F (at 4:00 pm)
Minimum temperature yesterday: 86 °F (at 4:00 am)
Average temperature yesterday: 96 °F

High & Low Weather Summary for the Past Weeks

 TemperatureHumidityPressure
High111 °F (May 27, 2:30 pm)70% (May 22, 5:00 am)29.83 "Hg (May 22, 5:00 am)
Low77 °F (May 16, 4:30 am)14% (May 18, 3:30 pm)29.27 "Hg (May 28, 3:30 pm)
Average94 °F44%29.56 "Hg
* Reported May 14 7:30 am — May 29 8:00 am, Unnao. Weather by CustomWeather, © 2024

Note: Actual official high and low records may vary slightly from our data, if they occured in-between our weather recording intervals... More about our weather records

Unnao Weather History for the Previous 24 Hours

Scroll right to see more
 ConditionsComfort  
Time TempWeatherWind HumidityBarometerVisibility
8:00 am
Wed, May 29
93 °FHaze.3 mph49%29.42 "Hg3 mi
7:30 am91 °FHaze.3 mph56%29.42 "Hg3 mi
6:30 am88 °FHaze.3 mph62%29.39 "Hg2 mi
6:00 am84 °FHaze.2 mph66%29.39 "Hg2 mi
5:30 am86 °FHaze.2 mph62%29.39 "Hg3 mi
5:00 am86 °FHaze.5 mph62%29.36 "Hg3 mi
4:30 am88 °FHaze.6 mph62%29.33 "Hg3 mi
4:00 am88 °FHaze.5 mph59%29.33 "Hg3 mi
3:30 am88 °FHaze.7 mph59%29.33 "Hg3 mi
3:00 am90 °FHaze.7 mph55%29.30 "Hg3 mi
2:30 am91 °FHaze.8 mph52%29.33 "Hg3 mi
2:00 am91 °FHaze.5 mph52%29.33 "Hg3 mi
1:30 am90 °FHaze.3 mph55%29.33 "Hg3 mi
1:00 am90 °FHaze.3 mph55%29.33 "Hg3 mi
12:30 am91 °FHaze.2 mph52%29.33 "Hg3 mi
12:00 am91 °FHaze.2 mph52%29.36 "Hg3 mi
11:30 pm
Tue, May 28
93 °FHaze.2 mph49%29.36 "Hg3 mi
10:30 pm95 °FHaze.5 mph47%29.36 "Hg3 mi
10:00 pm95 °FHaze.5 mph50%29.36 "Hg3 mi
9:30 pm97 °FHaze.5 mph47%29.36 "Hg3 mi
9:00 pm97 °FHaze.5 mph47%29.33 "Hg3 mi
8:30 pm99 °FHaze.5 mph44%29.33 "Hg3 mi
8:00 pm99 °FHaze.6 mph47%29.33 "Hg3 mi
7:30 pm99 °FHaze.6 mph47%29.30 "Hg3 mi
7:00 pm100 °FHaze.7 mph45%29.30 "Hg3 mi
6:00 pm104 °FHaze.9 mph38%29.27 "Hg3 mi
5:30 pm106 °FHaze.7 mph36%29.27 "Hg3 mi
5:00 pm108 °FHaze.7 mph25%29.27 "Hg3 mi
4:30 pm108 °FHaze.7 mph26%29.27 "Hg3 mi
4:00 pm109 °FHaze.9 mph25%29.27 "Hg3 mi
3:30 pm108 °FHaze.5 mph30%29.27 "Hg3 mi
2:30 pm108 °FHaze.7 mph30%29.30 "Hg3 mi
2:00 pm108 °FHaze.2 mph32%29.30 "Hg3 mi
1:00 pm104 °FHaze.2 mph38%29.33 "Hg3 mi
12:30 pm102 °FHaze.2 mph42%29.33 "Hg3 mi
12:00 pm102 °FHaze.2 mph42%29.36 "Hg3 mi
11:30 am102 °FHaze.2 mph42%29.36 "Hg3 mi
10:30 am99 °FHaze.2 mph50%29.36 "Hg3 mi
10:00 am97 °FHaze.2 mph50%29.36 "Hg3 mi
9:30 am95 °FHaze.2 mph53%29.39 "Hg3 mi
9:00 am93 °FHaze.6 mph56%29.33 "Hg3 mi
Weather by CustomWeather, © 2024

See weather overview